Latest METARs, TAFs and NOTAMs for LFPB


---------------------------------------------------------------------------
	(OBSERVATIONS)
LFPB 230830Z AUTO 23011KT 200V260 9999 -RA OVC017 21/18 Q1012
LFPB 230800Z AUTO 22014KT 9999 OVC017 21/18 Q1012 TEMPO 4000
    -RADZ BKN009 BECMG 23015G25KT=
LFPB 230730Z AUTO 23012KT 9999 OVC015 21/18 Q1013 TEMPO 4000
    -RADZ BKN009 BECMG 23015G25KT=
LFPB 230700Z AUTO 21013KT 9999 OVC015 21/18 Q1013 TEMPO 4000
    -RADZ BKN009 BECMG 23015G25KT=
LFPB 230630Z AUTO 22012KT 9999 OVC016 21/18 Q1013 TEMPO 4000
    -RADZ BKN009 BECMG 23015G25KT=
LFPB 230600Z AUTO 22010KT 9999 OVC017 21/18 Q1013 TEMPO 4000
    -RADZ BKN009 BECMG 23015G25KT=
---------------------------------------------------------------------------
	(FC)
Sorry, FC For LFPB Not Found
---------------------------------------------------------------------------
	(TERMINAL AREA FORECAST)
LFPB 230500Z 2306/2406 23015G25KT 9999 BKN013 PROB40
    TEMPO 2306/2311 4000 -RADZ BKN009
    BECMG 2311/2313 30015G30KT BKN020 PROB40
    TEMPO 2313/2314 27020G45KT 1500 +RA BKN010 BKN015TCU
    TEMPO 2314/2318 4000 -RA BKN015TCU PROB40
    TEMPO 2316/2317 31020G40KT
    BECMG 2320/2322 34010KT CAVOK=
---------------------------------------------------------------------------
	(NOTAMS)


LFPB A3881/18 APRON J EASTERN PART CLOSED. 29 AUG 09:14 2018
    UNTIL 31 OCT 23:59 2018. CREATED: 29 AUG 09:14 2018

LFPB A3882/18 TWY W19 CLOSED. 29 AUG 09:15 2018 UNTIL 31 OCT
    23:59 2018. CREATED: 29 AUG 09:15 2018

LFPB A3883/18 APRON I CLOSED. 29 AUG 09:16 2018 UNTIL 31 OCT
    23:59 2018. CREATED: 29 AUG 09:16 2018

LFPB P1236/18 MOBILE CRANE OPR RDL040/2.7NM ARP LFPB PSN : 490015,07N
    TO 490018,24N 0022900,93E TO 0022914,65E ELEV 431FT HEIGHT
    111FT DAY LIGHTED. MON-FRI 0400-1800, 02 JUL 04:00 2018 UNTIL
    26 OCT 18:00 2018. CREATED: 13 JUN 10:11 2018

LFPB P1237/18 MOBILE CRANE OPR RDL040/2.7NM ARP LFPB PSN : 490015,07N
    TO 490018,24N 0022900,93E TO 0022914,65E ELEV 431FT HEIGHT
    111FT DAY LIGHTED. MON-FRI 0500-1900, 29 OCT 05:00 2018 UNTIL
    29 MAR 19:00 2019. CREATED: 13 JUN 10:12 2018

LFPB P1717/18 2 MOBILE CRANES OPR AT LE THILLAY : MEAN PSN :
    490026N 0022905E RADIUS 0.1 NM RDL266/2.5NM LFPG, RDL037/2.8NM
    LFPB ELEV : 420FT HEIGHT : 95FT LIGHTING : DAY. MON-FRI 0500-1900,
    29 OCT 05:00 2018 UNTIL 29 MAR 19:00 2019. CREATED: 08 AUG
    08:41 2018

LFPB P1719/18 2 MOBIL CRANES OPR AT LE THILLAY PSN: 490026N,
    0022905E RDL:266/2,5NM LFPG 037/2,8NM LFPB ELEV: 128,02M
    NGF 420FT HEIGHT 29M 95FT LIGHTING: DAY RADIUS :0,1 NM. MON-FRI
    0400-1800, 03 SEP 04:00 2018 UNTIL 26 OCT 18:00 2018. CREATED:
    08 AUG 08:49 2018

LFPB P1733/18 CRANE ERECTED AT ROISSY EN FRANCE RDL 226/2.6NM
    ARP LFPB PSN : 485910N 0023037E RAYON 55M ELEV : 401FT HEIGHT
    : 128FT DAY AND NIGHT LIGHTED. 29 AUG 05:00 2018 UNTIL 30
    NOV 19:00 2019. CREATED: 09 AUG 14:24 2018

LFPB P1740/18 2 MOBILE CRANES OPR AT LE THILLAY : MEAN PSN :
    490026N 0022905E RADIUS 0.1NM RDL266/2.5NM LFPG, RDL037/2.8NM
    LFPB ELEV : 420FT HEIGHT : 95FT LIGHTING : DAY. MON-FRI 0400-1800,
    01 APR 04:00 2019 UNTIL 20 SEP 18:00 2019. CREATED: 10 AUG
    11:41 2018

---------------------------------------------------------------------------